CEM2 weather

Calgary (Rockyview Hospital) Heliport
Calgary, Alberta, Canada

Public forecast

Using degrees Celsius for public forecast. Weather courtesy of forecast.io.

METAR (pilot weather report)

Closest report is Calgary International Airport, 8.1 nm (15.0 km) NNE. Retrieved 2019/06/18 22:25 UTC (34 minutes ago):

CYYC 182225Z 06008KT 15SM -TSRA BKN028CB 18/10 A2989 RMK CB5 SLP128 DENSITY ALT 4900FT

TAF (pilot weather forecast)

Closest forecast is Calgary International Airport, 8.1 nm (15.0 km) NNE. Retrieved 2019/06/18 21:39 UTC (1 hour ago):

TAF CYYC 182038Z 1821/1918 07008KT P6SM SCT030 BKN090 TEMPO 1821/1822 VRB15G25KT 5SM TSRA BKN030CB FM182200 09008KT P6SM SCT040 BKN250 TEMPO 1823/1903 VRB20G30KT 4SM TSRA BKN025CB PROB30 1823/1902 VRB25G40KT 11/2SM TSRAGR BKN020CB FM190300 10008KT P6SM BKN040 TEMPO 1903/1908 P6SM -SHRA FM190800 15010KT 5SM -SHRA BR VCTS SCT006 OVC012CB FM191200 27008KT P6SM BKN010 OVC080 FM191500 33022G32KT P6SM BKN020 RMK NXT FCST BY 190000Z